Airfield :
LOGIN :

Register | Disclaimer

   EN    FR    IT 

 










Legend :    VFR   Marginal VFR   IFR   Intensive IFR   Very Intensive IFR
Visi :
Ceiling :
>= 8 km
>= 3000ft
5 to 8 km
1000 to 3000 ft
1500m to 5 km
500 to 1000 ft
800 to 1500m
200 to 500 ft
< 800m
< 200 ft
Symbols :   Thunderstorms  Fog  Heavy snow  Heavy precipitations  Wind > 20 kt
SIGMETs :     Misc.  Thunderstorms  Icing  Turbulence  Mountain Waves  Volcanic Ashes







- Airport Elevation : 72 ft
- IATA code : UDE


EHVK - Volkel Airbase

CURRENT METAR :
  • 100932Z AUTO 25005KT 230V290 9999 FEW022 SCT038 06/03 Q1021 BLU

EXPIRED METARs :
  • 100925Z AUTO 26005KT 240V300 9999 FEW022 BKN025 BKN034 05/03 Q1021 BLU
  • 100855Z AUTO 24006KT 210V290 9999 FEW012 SCT034 BKN067 05/03 Q1021 BLU
  • 100825Z AUTO 26005KT 230V290 9999 -UP FEW019 SCT028 BKN031 04/03 Q1021 BLU
  • 100755Z AUTO 25005KT 9999 FEW015CB SCT030 03/02 Q1020 BLU
  • 100734Z AUTO 24006KT 9999 FEW015CB SCT025 OVC035 04/03 Q1020 BLU
  • 100728Z AUTO 25005KT 9999 -RA FEW015CB SCT024 BKN029 BKN033 04/03 Q1020 WHT
  • 100725Z AUTO 25005KT 9999 FEW015CB SCT033 BKN041 04/03 Q1020 BLU
  • 100713Z AUTO 25005KT 9999 -RA FEW022 SCT030 BKN040 04/02 Q1020 BLU
  • 100655Z AUTO 25005KT 9999 FEW070 04/02 Q1020 REDZ BLU

TAF TAF EHVK
Valid from the 10 at 06:00 until the 10 at 18:00 UTC


100423Z 1006/1018 27009KT 9999 SCT025
TEMPO 1000/1018 29012G22KT -SHRA SCT018CB BKN025
BECMG 1011/1013 31013KT
BECMG 1017/1018 27007KT
No reported NOTAMs for that airfield.



MET'MAP, your aeronautical weather chart ! - Copyright ORBIFLY December 2007 - Disclaimer

ORBIFLY MET'MAP TEAM :

Programming & Development : Alexandra Zaïnal
Concept & Development : Baudouin d'Aumeries
Co-Development & Prog : Marc-Olivier Méhu
Technical & hardware support : Manuel Goepfert

Contact : metmap@orbifly.com




SOURCES & CREDITS :

   NOAA